TimePDT,TemperatureF,Dew PointF,Humidity,Sea Level PressureIn,VisibilityMPH,Wind Direction,Wind SpeedMPH,Gust SpeedMPH,PrecipitationIn,Events,Conditions,WindDirDegrees,DateUTC
12:52 AM,39.2,37.4,93,30.00,10.0,NNW,3.5,-,N/A,,Overcast,330,2013-05-17 07:52:00
12:56 AM,39.0,37.9,96,30.01,10.0,NNW,3.5,-,N/A,,Overcast,330,2013-05-17 07:56:00
1:10 AM,39.2,37.4,93,30.00,10.0,NNW,4.6,-,N/A,,Overcast,330,2013-05-17 08:10:00
1:56 AM,39.0,37.9,96,29.99,10.0,Calm,Calm,-,N/A,,Overcast,0,2013-05-17 08:56:00
2:56 AM,37.9,35.1,89,29.98,10.0,NNW,4.6,-,0.00,,Overcast,330,2013-05-17 09:56:00
3:56 AM,37.9,36.0,93,29.97,10.0,NNW,4.6,-,N/A,,Overcast,330,2013-05-17 10:56:00
4:56 AM,37.9,37.0,97,29.99,10.0,NW,4.6,-,N/A,,Overcast,320,2013-05-17 11:56:00
5:25 AM,37.4,37.4,100,29.99,2.5,NNW,3.5,-,N/A,,Overcast,330,2013-05-17 12:25:00
5:29 AM,37.4,37.4,100,29.99,1.2,Calm,Calm,-,N/A,,Overcast,0,2013-05-17 12:29:00
5:46 AM,37.4,35.6,93,29.99,1.0,NNW,4.6,-,N/A,,Overcast,340,2013-05-17 12:46:00
5:56 AM,37.9,37.0,97,29.99,0.5,North,4.6,-,N/A,Fog,Fog,350,2013-05-17 12:56:00
6:04 AM,37.4,37.4,100,29.99,0.2,North,3.5,-,N/A,Fog,Fog,350,2013-05-17 13:04:00
6:13 AM,37.4,37.4,100,29.99,0.2,North,3.5,-,N/A,Fog,Fog,360,2013-05-17 13:13:00
6:56 AM,37.9,37.0,97,30.01,0.2,Calm,Calm,-,N/A,Fog,Fog,0,2013-05-17 13:56:00
7:02 AM,37.4,37.4,100,29.99,2.5,Calm,Calm,-,N/A,,Overcast,0,2013-05-17 14:02:00
7:09 AM,37.4,37.4,100,29.99,1.5,Calm,Calm,-,N/A,,Mostly Cloudy,0,2013-05-17 14:09:00
7:19 AM,37.4,37.4,100,29.99,3.0,Calm,Calm,-,N/A,,Mostly Cloudy,0,2013-05-17 14:19:00
7:35 AM,39.2,37.4,93,29.99,10.0,Calm,Calm,-,N/A,,Mostly Cloudy,0,2013-05-17 14:35:00
7:47 AM,39.2,37.4,93,29.99,1.0,Calm,Calm,-,0.01,,Overcast,0,2013-05-17 14:47:00
7:50 AM,39.2,37.4,93,29.99,0.2,Calm,Calm,-,0.01,Fog,Fog,0,2013-05-17 14:50:00
7:56 AM,39.0,37.9,96,30.01,0.2,Calm,Calm,-,0.01,Fog,Fog,0,2013-05-17 14:56:00
8:18 AM,39.2,37.4,93,30.00,1.0,Calm,Calm,-,N/A,,Mist,0,2013-05-17 15:18:00
8:26 AM,39.2,37.4,93,30.00,2.0,NNW,3.5,-,N/A,,Overcast,340,2013-05-17 15:26:00
8:37 AM,39.2,37.4,93,30.00,9.0,Calm,Calm,-,N/A,,Mostly Cloudy,0,2013-05-17 15:37:00
8:54 AM,39.2,37.4,93,30.01,10.0,Calm,Calm,-,N/A,,Mostly Cloudy,0,2013-05-17 15:54:00
8:56 AM,39.9,37.0,89,30.03,10.0,Calm,Calm,-,N/A,,Mostly Cloudy,0,2013-05-17 15:56:00
9:33 AM,39.2,35.6,87,30.01,10.0,Calm,Calm,-,N/A,,Overcast,0,2013-05-17 16:33:00
9:56 AM,41.0,36.0,82,30.04,10.0,Calm,Calm,-,N/A,,Overcast,0,2013-05-17 16:56:00
10:21 AM,42.8,33.8,70,30.02,10.0,Calm,Calm,-,N/A,,Overcast,0,2013-05-17 17:21:00
10:39 AM,42.8,35.6,76,30.02,10.0,Calm,Calm,-,N/A,,Overcast,0,2013-05-17 17:39:00
10:56 AM,43.0,34.0,71,30.04,10.0,South,3.5,-,N/A,,Overcast,170,2013-05-17 17:56:00
11:24 AM,44.6,33.8,66,30.03,10.0,Calm,Calm,-,N/A,,Overcast,0,2013-05-17 18:24:00
11:56 AM,44.1,36.0,73,30.04,10.0,Calm,Calm,-,N/A,,Overcast,0,2013-05-17 18:56:00
12:34 PM,44.6,37.4,76,30.04,10.0,Variable,3.5,-,N/A,,Overcast,0,2013-05-17 19:34:00
12:56 PM,46.0,37.9,73,30.04,10.0,Calm,Calm,-,N/A,,Overcast,0,2013-05-17 19:56:00
1:56 PM,48.0,37.0,66,30.04,10.0,Calm,Calm,-,N/A,,Overcast,0,2013-05-17 20:56:00
2:56 PM,48.0,36.0,63,30.05,10.0,NW,4.6,-,N/A,,Mostly Cloudy,310,2013-05-17 21:56:00
3:56 PM,48.9,39.0,69,30.04,10.0,Calm,Calm,-,N/A,,Overcast,0,2013-05-17 22:56:00
4:56 PM,48.9,39.9,71,30.05,10.0,Variable,3.5,-,N/A,,Overcast,0,2013-05-17 23:56:00
5:10 PM,50.0,41.0,71,30.06,10.0,Variable,3.5,-,N/A,,Overcast,0,2013-05-18 00:10:00
5:20 PM,50.0,41.0,71,30.06,10.0,Calm,Calm,-,N/A,,Overcast,0,2013-05-18 00:20:00
5:35 PM,53.6,41.0,62,30.06,10.0,Variable,5.8,-,N/A,,Overcast,0,2013-05-18 00:35:00
5:56 PM,51.1,41.0,68,30.05,10.0,Calm,Calm,-,N/A,,Overcast,0,2013-05-18 00:56:00
6:56 PM,46.9,39.9,77,30.07,10.0,NNW,5.8,-,N/A,,Mostly Cloudy,340,2013-05-18 01:56:00
7:56 PM,45.0,39.9,82,30.08,10.0,Variable,4.6,-,N/A,,Scattered Clouds,0,2013-05-18 02:56:00
8:13 PM,44.6,39.2,81,30.07,10.0,NNW,4.6,-,N/A,,Mostly Cloudy,340,2013-05-18 03:13:00
8:31 PM,42.8,39.2,87,30.07,10.0,NNW,5.8,-,N/A,,Overcast,340,2013-05-18 03:31:00
8:45 PM,44.6,39.2,81,30.08,10.0,NNW,3.5,-,N/A,,Mostly Cloudy,330,2013-05-18 03:45:00
8:56 PM,43.0,39.9,89,30.09,10.0,NNW,5.8,-,N/A,,Overcast,340,2013-05-18 03:56:00
9:09 PM,42.8,39.2,87,30.08,10.0,NNW,3.5,-,N/A,,Overcast,340,2013-05-18 04:09:00
9:35 PM,42.8,41.0,93,30.09,8.0,NNW,4.6,-,N/A,,Overcast,340,2013-05-18 04:35:00
9:53 PM,42.8,39.2,87,30.09,1.5,NNW,4.6,-,N/A,,Overcast,340,2013-05-18 04:53:00
9:56 PM,42.1,39.9,92,30.10,1.2,NNW,6.9,-,N/A,,Overcast,340,2013-05-18 04:56:00
10:18 PM,42.8,39.2,87,30.10,0.8,NNW,5.8,-,N/A,,Overcast,340,2013-05-18 05:18:00
10:24 PM,42.8,39.2,87,30.10,1.0,NNW,5.8,-,N/A,,Overcast,340,2013-05-18 05:24:00
10:30 PM,42.8,39.2,87,30.09,2.0,NNW,4.6,-,N/A,,Overcast,340,2013-05-18 05:30:00
10:37 PM,41.0,39.2,93,30.09,0.8,Calm,Calm,-,N/A,,Overcast,0,2013-05-18 05:37:00
10:45 PM,41.0,39.2,93,30.10,1.5,NNW,4.6,-,N/A,,Overcast,330,2013-05-18 05:45:00
10:47 PM,41.0,39.2,93,30.10,4.0,NNW,4.6,-,N/A,,Overcast,330,2013-05-18 05:47:00
10:54 PM,41.0,39.2,93,30.10,4.0,NNW,5.8,-,N/A,,Overcast,330,2013-05-18 05:54:00
10:56 PM,41.0,39.0,93,30.11,3.0,NNW,5.8,-,N/A,,Overcast,340,2013-05-18 05:56:00
11:07 PM,41.0,39.2,93,30.09,1.8,NNW,6.9,-,N/A,,Overcast,340,2013-05-18 06:07:00
11:12 PM,41.0,39.2,93,30.09,0.8,NNW,5.8,-,N/A,,Overcast,340,2013-05-18 06:12:00
11:36 PM,39.2,39.2,100,30.09,0.2,NNW,6.9,-,N/A,Fog,Fog,340,2013-05-18 06:36:00
11:56 PM,39.9,39.0,97,30.11,0.2,NNW,5.8,-,N/A,Fog,Fog,340,2013-05-18 06:56:00